GLO1450 SBCF-SBSV
Flight info
| Callsign | GLO1450 |
|---|---|
| Flight time | 1h 14m |
| Altitude | 37000 |
| Route | ILPIR UZ23 EDNOB |
| Aircraft | B38M/M-SDE1FGHILORVWXY/HB1 |
Departure
| Time | 2026-05-06 17:51 |
|---|---|
| Airport | Tancredo Neves International Airport (SBCF) |
Arrival
| Time | 2026-05-06 19:06 |
|---|---|
| Airport | Deputado Luiz Eduardo Magalhães International Airport (SBSV) |
| Time | Latitude | Longitude | Altitude | Speed | Heading |
|---|---|---|---|---|---|
| 2026-05-06 17:30 | -19.62808 | -43.96855 | 2833 ft | 0 kts | 50° |
| 2026-05-06 17:41 | -19.62823 | -43.96872 | 2837 ft | 4 kts | 39° |
| 2026-05-06 17:41 | -19.62846 | -43.96886 | 2842 ft | 4 kts | 11° |
| 2026-05-06 17:41 | -19.62867 | -43.96883 | 2839 ft | 2 kts | 320° |
| 2026-05-06 17:42 | -19.62869 | -43.96882 | 2838 ft | 2 kts | 319° |
| 2026-05-06 17:45 | -19.62866 | -43.96884 | 2836 ft | 1 kts | 319° |
| 2026-05-06 17:46 | -19.62853 | -43.96896 | 2837 ft | 4 kts | 319° |
| 2026-05-06 17:46 | -19.62828 | -43.96919 | 2836 ft | 6 kts | 319° |
| 2026-05-06 17:46 | -19.62793 | -43.96954 | 2836 ft | 8 kts | 303° |
| 2026-05-06 17:46 | -19.62783 | -43.97013 | 2838 ft | 9 kts | 266° |
| 2026-05-06 17:47 | -19.62810 | -43.97070 | 2838 ft | 9 kts | 229° |
| 2026-05-06 17:47 | -19.62836 | -43.97126 | 2837 ft | 9 kts | 278° |
| 2026-05-06 17:47 | -19.62795 | -43.97182 | 2836 ft | 11 kts | 320° |
| 2026-05-06 17:47 | -19.62733 | -43.97239 | 2839 ft | 13 kts | 319° |
| 2026-05-06 17:48 | -19.62663 | -43.97304 | 2836 ft | 14 kts | 319° |
| 2026-05-06 17:48 | -19.62583 | -43.97376 | 2836 ft | 16 kts | 319° |
| 2026-05-06 17:48 | -19.62503 | -43.97450 | 2838 ft | 15 kts | 318° |
| 2026-05-06 17:48 | -19.62421 | -43.97527 | 2836 ft | 15 kts | 319° |
| 2026-05-06 17:49 | -19.62346 | -43.97596 | 2836 ft | 14 kts | 319° |
| 2026-05-06 17:49 | -19.62277 | -43.97660 | 2838 ft | 13 kts | 319° |
| 2026-05-06 17:49 | -19.62236 | -43.97716 | 2838 ft | 9 kts | 281° |
| 2026-05-06 17:49 | -19.62259 | -43.97765 | 2836 ft | 7 kts | 222° |
| 2026-05-06 17:50 | -19.62308 | -43.97786 | 2837 ft | 9 kts | 189° |
| 2026-05-06 17:50 | -19.62365 | -43.97795 | 2835 ft | 6 kts | 180° |
| 2026-05-06 17:50 | -19.62400 | -43.97774 | 2837 ft | 2 kts | 138° |
| 2026-05-06 17:50 | -19.62401 | -43.97773 | 2837 ft | 1 kts | 138° |
| 2026-05-06 17:51 | -19.62437 | -43.97739 | 2836 ft | 31 kts | 139° |
| 2026-05-06 17:51 | -19.62830 | -43.97376 | 2841 ft | 115 kts | 139° |
| 2026-05-06 17:51 | -19.63617 | -43.96652 | 2935 ft | 176 kts | 138° |
| 2026-05-06 17:51 | -19.64611 | -43.95726 | 3594 ft | 200 kts | 138° |
| 2026-05-06 17:52 | -19.65644 | -43.94771 | 4811 ft | 198 kts | 136° |
| 2026-05-06 17:52 | -19.66730 | -43.93736 | 5431 ft | 223 kts | 130° |
| 2026-05-06 17:52 | -19.67523 | -43.92253 | 5991 ft | 245 kts | 99° |
| 2026-05-06 17:52 | -19.67390 | -43.90416 | 6766 ft | 261 kts | 71° |
| 2026-05-06 17:53 | -19.66764 | -43.88560 | 7671 ft | 269 kts | 72° |
| 2026-05-06 17:53 | -19.66180 | -43.86652 | 8648 ft | 278 kts | 72° |
| 2026-05-06 17:53 | -19.65590 | -43.84691 | 8969 ft | 278 kts | 72° |
| 2026-05-06 17:53 | -19.65004 | -43.82727 | 9522 ft | 279 kts | 72° |
| 2026-05-06 17:54 | -19.64416 | -43.80758 | 10013 ft | 284 kts | 72° |
| 2026-05-06 17:54 | -19.63822 | -43.78759 | 10167 ft | 283 kts | 72° |
| 2026-05-06 17:54 | -19.63229 | -43.76770 | 10202 ft | 283 kts | 72° |
| 2026-05-06 17:54 | -19.62837 | -43.75451 | 10203 ft | 288 kts | 72° |
| 2026-05-06 17:55 | -19.61937 | -43.72633 | 10937 ft | 313 kts | 63° |
| 2026-05-06 17:55 | -19.61132 | -43.71332 | 11261 ft | 326 kts | 50° |
| 2026-05-06 17:55 | -19.59637 | -43.69432 | 11702 ft | 345 kts | 51° |
| 2026-05-06 17:55 | -19.58084 | -43.67419 | 12262 ft | 358 kts | 51° |
| 2026-05-06 17:56 | -19.56490 | -43.65364 | 13048 ft | 362 kts | 50° |
| 2026-05-06 17:56 | -19.54875 | -43.63283 | 13771 ft | 368 kts | 50° |
| 2026-05-06 17:56 | -19.53240 | -43.61177 | 14493 ft | 371 kts | 50° |
| 2026-05-06 17:56 | -19.51557 | -43.59112 | 15053 ft | 378 kts | 43° |
| 2026-05-06 17:57 | -19.49419 | -43.57465 | 15695 ft | 381 kts | 34° |
| 2026-05-06 17:57 | -19.47196 | -43.55889 | 16270 ft | 388 kts | 34° |
| 2026-05-06 17:57 | -19.44918 | -43.54291 | 16850 ft | 393 kts | 34° |
| 2026-05-06 17:57 | -19.42615 | -43.52688 | 17424 ft | 398 kts | 34° |
| 2026-05-06 17:58 | -19.40272 | -43.51066 | 17986 ft | 403 kts | 34° |
| 2026-05-06 17:58 | -19.37935 | -43.49450 | 18508 ft | 408 kts | 34° |
| 2026-05-06 17:58 | -19.35538 | -43.47795 | 18958 ft | 413 kts | 34° |
| 2026-05-06 17:58 | -19.33124 | -43.46130 | 19470 ft | 416 kts | 34° |
| 2026-05-06 17:59 | -19.30725 | -43.44384 | 19905 ft | 421 kts | 39° |
| 2026-05-06 17:59 | -19.28397 | -43.42499 | 20426 ft | 423 kts | 38° |
| 2026-05-06 17:59 | -19.26039 | -43.40613 | 20940 ft | 426 kts | 38° |
| 2026-05-06 17:59 | -19.23662 | -43.38724 | 21433 ft | 429 kts | 38° |
| 2026-05-06 18:00 | -19.21260 | -43.36819 | 21909 ft | 433 kts | 38° |
| 2026-05-06 18:00 | -19.18824 | -43.34890 | 22346 ft | 438 kts | 38° |
| 2026-05-06 18:00 | -19.16374 | -43.32951 | 22837 ft | 441 kts | 38° |
| 2026-05-06 18:00 | -19.13933 | -43.31020 | 23278 ft | 445 kts | 38° |
| 2026-05-06 18:01 | -19.11443 | -43.29051 | 23746 ft | 448 kts | 38° |
| 2026-05-06 18:01 | -19.08934 | -43.27067 | 24128 ft | 452 kts | 38° |
| 2026-05-06 18:01 | -19.06401 | -43.25065 | 24512 ft | 456 kts | 38° |
| 2026-05-06 18:01 | -19.03856 | -43.23055 | 24912 ft | 459 kts | 38° |
| 2026-05-06 18:02 | -19.01286 | -43.21026 | 25307 ft | 462 kts | 38° |
| 2026-05-06 18:02 | -18.98696 | -43.18981 | 25699 ft | 466 kts | 38° |
| 2026-05-06 18:02 | -18.96090 | -43.16925 | 26097 ft | 469 kts | 38° |
| 2026-05-06 18:02 | -18.93463 | -43.14853 | 26476 ft | 472 kts | 38° |
| 2026-05-06 18:03 | -18.90821 | -43.12770 | 26846 ft | 476 kts | 38° |
| 2026-05-06 18:03 | -18.88156 | -43.10670 | 27222 ft | 479 kts | 38° |
| 2026-05-06 18:03 | -18.85473 | -43.08557 | 27573 ft | 482 kts | 38° |
| 2026-05-06 18:03 | -18.82776 | -43.06434 | 27951 ft | 485 kts | 38° |
| 2026-05-06 18:04 | -18.80063 | -43.04297 | 28277 ft | 489 kts | 38° |
| 2026-05-06 18:04 | -18.77367 | -43.02166 | 28636 ft | 492 kts | 38° |
| 2026-05-06 18:04 | -18.74585 | -42.99968 | 29015 ft | 495 kts | 38° |
| 2026-05-06 18:04 | -18.71848 | -42.97807 | 29358 ft | 498 kts | 38° |
| 2026-05-06 18:05 | -18.69065 | -42.95610 | 29702 ft | 501 kts | 38° |
| 2026-05-06 18:05 | -18.66263 | -42.93399 | 30058 ft | 504 kts | 38° |
| 2026-05-06 18:05 | -18.63441 | -42.91173 | 30369 ft | 507 kts | 38° |
| 2026-05-06 18:05 | -18.60606 | -42.88937 | 30708 ft | 508 kts | 39° |
| 2026-05-06 18:06 | -18.57761 | -42.86696 | 31047 ft | 510 kts | 39° |
| 2026-05-06 18:06 | -18.54946 | -42.84479 | 31390 ft | 512 kts | 38° |
| 2026-05-06 18:06 | -18.52085 | -42.82229 | 31752 ft | 513 kts | 38° |
| 2026-05-06 18:06 | -18.49227 | -42.79982 | 32132 ft | 514 kts | 38° |
| 2026-05-06 18:07 | -18.46358 | -42.77728 | 32515 ft | 514 kts | 38° |
| 2026-05-06 18:07 | -18.43486 | -42.75473 | 32900 ft | 515 kts | 38° |
| 2026-05-06 18:07 | -18.40610 | -42.73214 | 33261 ft | 516 kts | 39° |
| 2026-05-06 18:07 | -18.37723 | -42.70949 | 33620 ft | 517 kts | 38° |
| 2026-05-06 18:08 | -18.34839 | -42.68687 | 33982 ft | 518 kts | 38° |
| 2026-05-06 18:08 | -18.31945 | -42.66418 | 34305 ft | 520 kts | 38° |
| 2026-05-06 18:08 | -18.29036 | -42.64137 | 34595 ft | 521 kts | 38° |
| 2026-05-06 18:08 | -18.26130 | -42.61861 | 34895 ft | 521 kts | 38° |
| 2026-05-06 18:09 | -18.23210 | -42.59574 | 35219 ft | 521 kts | 39° |
| 2026-05-06 18:09 | -18.20336 | -42.57325 | 35537 ft | 521 kts | 39° |
| 2026-05-06 18:09 | -18.17427 | -42.55049 | 35875 ft | 520 kts | 39° |
| 2026-05-06 18:09 | -18.14522 | -42.52777 | 36166 ft | 521 kts | 39° |
| 2026-05-06 18:10 | -18.11607 | -42.50498 | 36432 ft | 522 kts | 39° |
| 2026-05-06 18:10 | -18.08695 | -42.48222 | 36711 ft | 522 kts | 39° |
| 2026-05-06 18:10 | -18.05778 | -42.45944 | 36968 ft | 523 kts | 39° |
| 2026-05-06 18:10 | -18.02885 | -42.43685 | 37141 ft | 524 kts | 39° |
| 2026-05-06 18:11 | -17.97039 | -42.39125 | 37108 ft | 521 kts | 39° |
| 2026-05-06 18:11 | -17.91221 | -42.34588 | 37103 ft | 520 kts | 39° |
| 2026-05-06 18:12 | -17.85409 | -42.30061 | 37126 ft | 520 kts | 39° |
| 2026-05-06 18:12 | -17.79594 | -42.25536 | 37112 ft | 519 kts | 39° |
| 2026-05-06 18:13 | -17.73767 | -42.21004 | 37122 ft | 521 kts | 39° |
| 2026-05-06 18:13 | -17.67983 | -42.16509 | 37120 ft | 517 kts | 38° |
| 2026-05-06 18:14 | -17.62207 | -42.12025 | 37131 ft | 515 kts | 38° |
| 2026-05-06 18:14 | -17.56469 | -42.07574 | 37118 ft | 516 kts | 38° |
| 2026-05-06 18:15 | -17.50670 | -42.03078 | 37115 ft | 518 kts | 38° |
| 2026-05-06 18:15 | -17.44872 | -41.98584 | 37130 ft | 518 kts | 38° |
| 2026-05-06 18:16 | -17.39086 | -41.94101 | 37131 ft | 515 kts | 38° |
| 2026-05-06 18:16 | -17.33332 | -41.89646 | 37113 ft | 515 kts | 38° |
| 2026-05-06 18:17 | -17.27581 | -41.85197 | 37131 ft | 517 kts | 38° |
| 2026-05-06 18:17 | -17.21802 | -41.80729 | 37123 ft | 516 kts | 38° |
| 2026-05-06 18:18 | -17.16011 | -41.76256 | 37133 ft | 516 kts | 38° |
| 2026-05-06 18:18 | -17.10275 | -41.71828 | 37112 ft | 514 kts | 38° |
| 2026-05-06 18:19 | -17.04509 | -41.67381 | 37122 ft | 516 kts | 38° |
| 2026-05-06 18:19 | -16.98733 | -41.62931 | 37113 ft | 515 kts | 38° |
| 2026-05-06 18:20 | -16.92961 | -41.58486 | 37107 ft | 515 kts | 38° |
| 2026-05-06 18:20 | -16.87216 | -41.54065 | 37115 ft | 514 kts | 38° |
| 2026-05-06 18:21 | -16.81472 | -41.49649 | 37123 ft | 512 kts | 38° |
| 2026-05-06 18:21 | -16.75733 | -41.45240 | 37107 ft | 512 kts | 38° |
| 2026-05-06 18:22 | -16.70019 | -41.40847 | 37107 ft | 512 kts | 38° |
| 2026-05-06 18:22 | -16.64279 | -41.36387 | 37125 ft | 515 kts | 38° |
| 2026-05-06 18:23 | -16.58540 | -41.31936 | 37106 ft | 512 kts | 38° |
| 2026-05-06 18:23 | -16.52822 | -41.27503 | 37116 ft | 512 kts | 38° |
| 2026-05-06 18:24 | -16.47104 | -41.23076 | 37097 ft | 511 kts | 38° |
| 2026-05-06 18:24 | -16.41417 | -41.18675 | 37125 ft | 513 kts | 38° |
| 2026-05-06 18:25 | -16.35676 | -41.14235 | 37117 ft | 513 kts | 38° |
| 2026-05-06 18:25 | -16.29947 | -41.09809 | 37115 ft | 513 kts | 38° |
| 2026-05-06 18:26 | -16.24219 | -41.05386 | 37106 ft | 513 kts | 38° |
| 2026-05-06 18:26 | -16.18464 | -41.00946 | 37125 ft | 516 kts | 38° |
| 2026-05-06 18:27 | -16.12706 | -40.96506 | 37109 ft | 515 kts | 38° |
| 2026-05-06 18:27 | -16.06940 | -40.92064 | 37118 ft | 516 kts | 38° |
| 2026-05-06 18:28 | -16.01221 | -40.87662 | 37100 ft | 512 kts | 38° |
| 2026-05-06 18:28 | -15.95480 | -40.83245 | 37115 ft | 514 kts | 38° |
| 2026-05-06 18:29 | -15.89727 | -40.78823 | 37117 ft | 514 kts | 38° |
| 2026-05-06 18:29 | -15.83974 | -40.74404 | 37126 ft | 514 kts | 38° |
| 2026-05-06 18:30 | -15.78227 | -40.69993 | 37116 ft | 514 kts | 38° |
| 2026-05-06 18:30 | -15.72479 | -40.65584 | 37103 ft | 511 kts | 37° |
| 2026-05-06 18:31 | -15.66753 | -40.61195 | 37119 ft | 512 kts | 37° |
| 2026-05-06 18:31 | -15.61062 | -40.56836 | 37116 ft | 511 kts | 37° |
| 2026-05-06 18:32 | -15.55329 | -40.52449 | 37093 ft | 512 kts | 37° |
| 2026-05-06 18:32 | -15.49568 | -40.48041 | 37107 ft | 514 kts | 37° |
| 2026-05-06 18:33 | -15.43825 | -40.43652 | 37111 ft | 510 kts | 37° |
| 2026-05-06 18:33 | -15.38126 | -40.39299 | 37088 ft | 509 kts | 37° |
| 2026-05-06 18:34 | -15.32423 | -40.34946 | 37079 ft | 510 kts | 37° |
| 2026-05-06 18:34 | -15.26723 | -40.30599 | 37103 ft | 512 kts | 37° |
| 2026-05-06 18:35 | -15.20981 | -40.26223 | 37097 ft | 512 kts | 37° |
| 2026-05-06 18:35 | -15.15256 | -40.21863 | 37104 ft | 507 kts | 37° |
| 2026-05-06 18:36 | -15.09583 | -40.17546 | 37072 ft | 506 kts | 37° |
| 2026-05-06 18:36 | -15.03888 | -40.13214 | 37089 ft | 509 kts | 37° |
| 2026-05-06 18:37 | -14.99136 | -40.09602 | 37083 ft | 509 kts | 37° |
| 2026-05-06 18:37 | -14.92496 | -40.04559 | 37087 ft | 509 kts | 37° |
| 2026-05-06 18:38 | -14.86784 | -40.00223 | 37073 ft | 506 kts | 37° |
| 2026-05-06 18:38 | -14.81090 | -39.95905 | 37091 ft | 508 kts | 36° |
| 2026-05-06 18:39 | -14.75435 | -39.91618 | 37073 ft | 507 kts | 36° |
| 2026-05-06 18:40 | -14.66874 | -39.85134 | 37079 ft | 507 kts | 36° |
| 2026-05-06 18:40 | -14.61179 | -39.80825 | 37066 ft | 507 kts | 36° |
| 2026-05-06 18:41 | -14.56455 | -39.77252 | 37065 ft | 505 kts | 36° |
| 2026-05-06 18:41 | -14.49860 | -39.72268 | 37075 ft | 505 kts | 36° |
| 2026-05-06 18:42 | -14.44187 | -39.67983 | 37064 ft | 505 kts | 36° |
| 2026-05-06 18:42 | -14.38517 | -39.63704 | 37027 ft | 503 kts | 36° |
| 2026-05-06 18:42 | -14.35710 | -39.61586 | 36841 ft | 496 kts | 36° |
| 2026-05-06 18:43 | -14.33870 | -39.60197 | 36337 ft | 495 kts | 36° |
| 2026-05-06 18:43 | -14.31103 | -39.57998 | 35003 ft | 505 kts | 41° |
| 2026-05-06 18:43 | -14.28441 | -39.55653 | 34060 ft | 499 kts | 40° |
| 2026-05-06 18:43 | -14.25800 | -39.53358 | 32993 ft | 494 kts | 40° |
| 2026-05-06 18:44 | -14.23173 | -39.51095 | 31853 ft | 491 kts | 40° |
| 2026-05-06 18:44 | -14.20560 | -39.48850 | 30836 ft | 487 kts | 39° |
| 2026-05-06 18:44 | -14.17102 | -39.45881 | 29673 ft | 488 kts | 39° |
| 2026-05-06 18:44 | -14.15340 | -39.44370 | 29007 ft | 488 kts | 39° |
| 2026-05-06 18:45 | -14.12763 | -39.42159 | 28005 ft | 490 kts | 39° |
| 2026-05-06 18:45 | -14.10129 | -39.39899 | 26971 ft | 493 kts | 39° |
| 2026-05-06 18:45 | -14.07493 | -39.37639 | 26240 ft | 490 kts | 39° |
| 2026-05-06 18:45 | -14.04883 | -39.35402 | 25479 ft | 485 kts | 39° |
| 2026-05-06 18:46 | -14.02278 | -39.33170 | 24704 ft | 487 kts | 39° |
| 2026-05-06 18:46 | -13.99670 | -39.30936 | 23927 ft | 487 kts | 39° |
| 2026-05-06 18:46 | -13.97073 | -39.28711 | 23071 ft | 484 kts | 39° |
| 2026-05-06 18:46 | -13.94521 | -39.26526 | 22259 ft | 481 kts | 39° |
| 2026-05-06 18:47 | -13.91957 | -39.24332 | 21498 ft | 476 kts | 39° |
| 2026-05-06 18:47 | -13.89418 | -39.22160 | 20798 ft | 471 kts | 39° |
| 2026-05-06 18:47 | -13.86904 | -39.20009 | 20046 ft | 468 kts | 39° |
| 2026-05-06 18:47 | -13.84418 | -39.17884 | 19453 ft | 461 kts | 39° |
| 2026-05-06 18:48 | -13.81987 | -39.15805 | 18697 ft | 447 kts | 40° |
| 2026-05-06 18:48 | -13.79619 | -39.13782 | 17819 ft | 434 kts | 40° |
| 2026-05-06 18:48 | -13.77363 | -39.11854 | 17091 ft | 418 kts | 40° |
| 2026-05-06 18:48 | -13.75139 | -39.09954 | 16401 ft | 416 kts | 40° |
| 2026-05-06 18:49 | -13.72915 | -39.08055 | 15740 ft | 416 kts | 40° |
| 2026-05-06 18:49 | -13.70682 | -39.06154 | 15069 ft | 416 kts | 40° |
| 2026-05-06 18:49 | -13.68410 | -39.04286 | 14296 ft | 417 kts | 39° |
| 2026-05-06 18:49 | -13.66157 | -39.02437 | 13773 ft | 412 kts | 40° |
| 2026-05-06 18:50 | -13.63931 | -39.00606 | 13149 ft | 408 kts | 40° |
| 2026-05-06 18:50 | -13.61728 | -38.98794 | 12568 ft | 403 kts | 40° |
| 2026-05-06 18:50 | -13.59547 | -38.97000 | 11957 ft | 397 kts | 40° |
| 2026-05-06 18:50 | -13.57445 | -38.95273 | 11633 ft | 373 kts | 40° |
| 2026-05-06 18:51 | -13.55498 | -38.93673 | 11536 ft | 345 kts | 40° |
| 2026-05-06 18:51 | -13.53684 | -38.92182 | 11377 ft | 323 kts | 41° |
| 2026-05-06 18:51 | -13.51977 | -38.90780 | 11203 ft | 305 kts | 41° |
| 2026-05-06 18:51 | -13.50381 | -38.89468 | 11055 ft | 292 kts | 41° |
| 2026-05-06 18:52 | -13.48796 | -38.88166 | 10896 ft | 284 kts | 41° |
| 2026-05-06 18:52 | -13.47289 | -38.86928 | 10747 ft | 277 kts | 41° |
| 2026-05-06 18:52 | -13.45808 | -38.85711 | 10607 ft | 269 kts | 41° |
| 2026-05-06 18:52 | -13.44358 | -38.84519 | 10475 ft | 267 kts | 41° |
| 2026-05-06 18:53 | -13.42881 | -38.83307 | 10351 ft | 275 kts | 41° |
| 2026-05-06 18:53 | -13.41369 | -38.82065 | 10223 ft | 280 kts | 41° |
| 2026-05-06 18:53 | -13.39845 | -38.80816 | 10078 ft | 281 kts | 41° |
| 2026-05-06 18:53 | -13.38318 | -38.79563 | 9790 ft | 282 kts | 41° |
| 2026-05-06 18:54 | -13.36785 | -38.78303 | 9425 ft | 282 kts | 41° |
| 2026-05-06 18:54 | -13.35254 | -38.77047 | 9116 ft | 280 kts | 41° |
| 2026-05-06 18:54 | -13.33736 | -38.75802 | 8820 ft | 278 kts | 41° |
| 2026-05-06 18:54 | -13.32233 | -38.74567 | 8519 ft | 276 kts | 41° |
| 2026-05-06 18:55 | -13.30741 | -38.73344 | 8228 ft | 274 kts | 41° |
| 2026-05-06 18:55 | -13.29259 | -38.72129 | 7928 ft | 272 kts | 41° |
| 2026-05-06 18:55 | -13.27787 | -38.70921 | 7653 ft | 270 kts | 41° |
| 2026-05-06 18:55 | -13.26338 | -38.69732 | 7361 ft | 269 kts | 42° |
| 2026-05-06 18:56 | -13.24878 | -38.68535 | 7075 ft | 268 kts | 42° |
| 2026-05-06 18:56 | -13.23913 | -38.67744 | 6880 ft | 267 kts | 42° |
| 2026-05-06 18:56 | -13.22934 | -38.66942 | 6684 ft | 266 kts | 42° |
| 2026-05-06 18:57 | -13.16345 | -38.61543 | 5307 ft | 262 kts | 41° |
| 2026-05-06 18:57 | -13.14924 | -38.60380 | 5028 ft | 260 kts | 41° |
| 2026-05-06 18:58 | -13.13520 | -38.59239 | 4861 ft | 254 kts | 42° |
| 2026-05-06 18:58 | -13.12160 | -38.58133 | 4743 ft | 245 kts | 41° |
| 2026-05-06 18:58 | -13.10846 | -38.57065 | 4637 ft | 236 kts | 41° |
| 2026-05-06 18:58 | -13.09583 | -38.56038 | 4524 ft | 227 kts | 42° |
| 2026-05-06 18:59 | -13.08367 | -38.55050 | 4412 ft | 220 kts | 42° |
| 2026-05-06 18:59 | -13.07162 | -38.54070 | 4333 ft | 221 kts | 42° |
| 2026-05-06 18:59 | -13.05971 | -38.53101 | 4234 ft | 221 kts | 42° |
| 2026-05-06 18:59 | -13.04770 | -38.52171 | 4168 ft | 212 kts | 33° |
| 2026-05-06 19:00 | -13.03366 | -38.51748 | 4026 ft | 209 kts | 13° |
| 2026-05-06 19:00 | -13.01952 | -38.51509 | 3906 ft | 206 kts | 13° |
| 2026-05-06 19:00 | -13.00538 | -38.51277 | 3755 ft | 208 kts | 12° |
| 2026-05-06 19:00 | -12.99098 | -38.51047 | 3501 ft | 210 kts | 11° |
| 2026-05-06 19:01 | -12.97661 | -38.50822 | 3315 ft | 205 kts | 12° |
| 2026-05-06 19:01 | -12.96273 | -38.50605 | 3125 ft | 204 kts | 14° |
| 2026-05-06 19:01 | -12.95041 | -38.49995 | 2935 ft | 194 kts | 49° |
| 2026-05-06 19:01 | -12.94347 | -38.48859 | 2807 ft | 187 kts | 73° |
| 2026-05-06 19:02 | -12.93981 | -38.47631 | 2614 ft | 174 kts | 81° |
| 2026-05-06 19:02 | -12.93718 | -38.46469 | 2426 ft | 158 kts | 82° |
| 2026-05-06 19:02 | -12.93501 | -38.45438 | 2326 ft | 142 kts | 83° |
| 2026-05-06 19:02 | -12.93306 | -38.44473 | 2132 ft | 138 kts | 82° |
| 2026-05-06 19:03 | -12.93111 | -38.43494 | 1936 ft | 140 kts | 84° |
| 2026-05-06 19:03 | -12.92916 | -38.42528 | 1758 ft | 140 kts | 81° |
| 2026-05-06 19:03 | -12.92722 | -38.41557 | 1582 ft | 138 kts | 82° |
| 2026-05-06 19:03 | -12.92527 | -38.40595 | 1371 ft | 138 kts | 83° |
| 2026-05-06 19:04 | -12.92335 | -38.39636 | 1224 ft | 137 kts | 83° |
| 2026-05-06 19:04 | -12.92147 | -38.38694 | 1030 ft | 130 kts | 84° |
| 2026-05-06 19:04 | -12.91968 | -38.37770 | 863 ft | 138 kts | 84° |
| 2026-05-06 19:04 | -12.91785 | -38.36842 | 728 ft | 135 kts | 82° |
| 2026-05-06 19:05 | -12.91585 | -38.35921 | 572 ft | 132 kts | 84° |
| 2026-05-06 19:05 | -12.91403 | -38.34973 | 377 ft | 136 kts | 87° |
| 2026-05-06 19:05 | -12.91216 | -38.34045 | 208 ft | 131 kts | 84° |
| 2026-05-06 19:05 | -12.91034 | -38.33147 | 53 ft | 122 kts | 84° |
| 2026-05-06 19:06 | -12.90887 | -38.32404 | 54 ft | 87 kts | 78° |
| 2026-05-06 19:06 | -12.90797 | -38.31956 | 47 ft | 36 kts | 78° |
| 2026-05-06 19:06 | -12.90787 | -38.31740 | 47 ft | 22 kts | 131° |
| 2026-05-06 19:06 | -12.90877 | -38.31708 | 52 ft | 10 kts | 176° |
| 2026-05-06 19:07 | -12.90917 | -38.31760 | 56 ft | 13 kts | 259° |
| 2026-05-06 19:07 | -12.90937 | -38.31864 | 55 ft | 17 kts | 258° |
| 2026-05-06 19:07 | -12.90963 | -38.31991 | 55 ft | 20 kts | 258° |
| 2026-05-06 19:07 | -12.90992 | -38.32137 | 55 ft | 22 kts | 259° |
| 2026-05-06 19:08 | -12.91024 | -38.32296 | 55 ft | 22 kts | 258° |
| 2026-05-06 19:08 | -12.91055 | -38.32449 | 53 ft | 21 kts | 258° |
| 2026-05-06 19:08 | -12.91087 | -38.32606 | 55 ft | 24 kts | 258° |
| 2026-05-06 19:08 | -12.91121 | -38.32775 | 50 ft | 23 kts | 258° |
| 2026-05-06 19:09 | -12.91152 | -38.32932 | 49 ft | 21 kts | 258° |
| 2026-05-06 19:09 | -12.91178 | -38.33060 | 47 ft | 14 kts | 258° |
| 2026-05-06 19:09 | -12.91195 | -38.33145 | 46 ft | 9 kts | 258° |
| 2026-05-06 19:09 | -12.91245 | -38.33178 | 46 ft | 10 kts | 174° |
| 2026-05-06 19:10 | -12.91299 | -38.33201 | 46 ft | 7 kts | 209° |
| 2026-05-06 19:10 | -12.91328 | -38.33217 | 45 ft | 1 kts | 206° |
| 2026-05-06 19:10 | -12.91342 | -38.33225 | 46 ft | 3 kts | 208° |
| 2026-05-06 19:10 | -12.91352 | -38.33230 | 43 ft | 0 kts | 208° |